DATA ZE ZPRÁV METAR

Zprávy METAR jsou pravidelné letecké meteorologické zprávy o podmínkách na daném letišti, zejména o stavu oblačnosti, viditelnosti a průběhu počasí v poslední hodině. Na letištích s pravidelným provozem jsou vydávány každých 30 minut, jinak zpravidla jednou za hodinu. Ne každé letiště (zejména komerční) poskytuje zprávy po celých 24 hodin denně. Více o zprávách METAR najdete na této stránce.

Zprávy METAR z letišť v blízkém okolí

LKPR - Praha Ruzyně, Česká republika
Směr a vzdálenost od této stanice: ZJZ 98km
Aktualizováno: 21.07.2018 03:00
Jasno, Jasná obloha
Jasno, Jasná obloha
 Vítr ze směru S
Vítr: S 4 km/h
Teplota: 16°C
Rosný bod: 9°C
Vlhkost: 63%
Tlak vzduchu: 1013 hPa
Stav počasí: Jasno
Oblačnost: Jasná obloha
Dohlednost: více než 10 km
2018/07/21 01:00 LKPR 210100Z 35002KT CAVOK 16/09 Q1013 NOSIG
LKTB - Brno Tuřany, Česká republika
Směr a vzdálenost od této stanice: JJV 174km
Aktualizováno: 21.07.2018 03:00
Jasno, Jasná obloha
Jasno, Jasná obloha
 Vítr ze směru VSV
Vítr: VSV 7 km/h
Teplota: 19°C
Rosný bod: 12°C
Vlhkost: 64%
Tlak vzduchu: 1013 hPa
Stav počasí: Jasno
Oblačnost: Jasná obloha
Dohlednost: více než 10 km
2018/07/21 01:00 LKTB 210100Z 07004KT CAVOK 19/12 Q1013 NOSIG
 
LKKV - Karlovy Vary, Česká republika
Směr a vzdálenost od této stanice: Z 187km
Aktualizováno: 21.07.2018 03:00
Jasno, Jasná obloha
Jasno, Jasná obloha
 Vítr ze směru SV
Vítr: SV 6 km/h
Teplota: 16°C
Rosný bod: 8°C
Vlhkost: 59%
Tlak vzduchu: 1013 hPa
Stav počasí: Jasno
Oblačnost: Jasná obloha
Dohlednost: více než 10 km
2018/07/21 01:00 LKKV 210100Z 05003KT CAVOK 16/08 Q1013
LKMT - Ostrava Mošnov, Česká republika
Směr a vzdálenost od této stanice: VJV 208km
Aktualizováno: 21.07.2018 03:00
Jasno, Jasná obloha
Jasno, Jasná obloha
 Vítr ze směru proměnlivý
Vítr: proměnlivý 4 km/h
Teplota: 14°C
Rosný bod: 12°C
Vlhkost: 88%
Tlak vzduchu: 1014 hPa
Stav počasí: Jasno
Oblačnost: Jasná obloha
Dohlednost: více než 10 km
2018/07/21 01:00 LKMT 210100Z VRB02KT CAVOK 14/12 Q1014 NOSIG
 
LKPD - Pardubice, Česká republika
Směr a vzdálenost od této stanice: JJV 56km
Aktualizováno: 21.07.2018 03:00
Jasno, Jasná obloha
Jasno, Jasná obloha
 Vítr ze směru SV
Vítr: SV 9 km/h
Teplota: 17°C
Rosný bod: 11°C
Vlhkost: 68%
Tlak vzduchu: 1012 hPa
Stav počasí: Jasno
Oblačnost: Jasná obloha
Dohlednost: více než 10 km
2018/07/21 01:00 LKPD 210100Z 04005KT CAVOK 17/11 Q1012
LKKB - Praha Kbely, Česká republika
Směr a vzdálenost od této stanice: ZJZ 81km
Aktualizováno: 21.07.2018 03:00
Jasno, Jasná obloha
Jasno, Jasná obloha
 Vítr ze směru SV
Vítr: SV 9 km/h
Teplota: 16°C
Rosný bod: 10°C
Vlhkost: 68%
Tlak vzduchu: 1012 hPa
Stav počasí: Jasno
Oblačnost: Jasná obloha
Dohlednost: více než 10 km
2018/07/21 01:00 LKKB 210100Z 04005KT CAVOK 16/10 Q1012
 
LKCV - Čáslav, Česká republika
Směr a vzdálenost od této stanice: J 63km
Aktualizováno: 21.07.2018 03:00
Jasno, Jasná obloha
Jasno, Jasná obloha
 Vítr ze směru proměnlivý
Vítr: proměnlivý 4 km/h
Teplota: 15°C
Rosný bod: 9°C
Vlhkost: 68%
Tlak vzduchu: 1012 hPa
Stav počasí: Jasno
Oblačnost: Jasná obloha
Dohlednost: více než 10 km
2018/07/21 01:00 LKCV 210100Z VRB02KT CAVOK 15/09 Q1012 NOSIG
LKNA - Náměšť n. Osl., Česká republika
Směr a vzdálenost od této stanice: JJV 154km
Aktualizováno: 21.07.2018 03:00
Jasno, Jasná obloha
Jasno, Jasná obloha
 Vítr ze směru V
Vítr: V 9 km/h
Teplota: 19°C
Rosný bod: 12°C
Vlhkost: 64%
Tlak vzduchu: 1014 hPa
Stav počasí: Jasno
Oblačnost: Jasná obloha
Dohlednost: více než 10 km
2018/07/21 01:00 LKNA 210100Z 09005KT CAVOK 19/12 Q1014
 
LKLN - Plzeň Líně, Česká republika
Směr a vzdálenost od této stanice: ZJZ 184km
Aktualizováno: 21.07.2018 03:00
Skoro jasno
Skoro jasno
 Vítr ze směru SSV
Vítr: SSV 6 km/h
Teplota: 16°C
Rosný bod: 10°C
Vlhkost: 68%
Tlak vzduchu: 1012 hPa
Oblačnost: Skoro jasno
Dohlednost: 10 km
Detaily oblačnosti: Skoro jasno 2743 m
2018/07/21 01:00 LKLN 210100Z AUTO 03003KT 350V070 9999 FEW090 16/10 Q1012
EDDC - Dresden Klotzsch, Německo
Směr a vzdálenost od této stanice: ZSZ 142km
Aktualizováno: 21.07.2018 03:20
Jasno, Jasná obloha
Jasno, Jasná obloha
 Vítr ze směru VJV
Vítr: VJV 4 km/h
Teplota: 18°C
Rosný bod: 9°C
Vlhkost: 56%
Tlak vzduchu: 1012 hPa
Stav počasí: Jasno
Oblačnost: Jasná obloha
Dohlednost: více než 10 km
2018/07/21 01:20 EDDC 210120Z 12002KT CAVOK 18/09 Q1012